sensor_id;sensor_type;location;lat;lon;timestamp;P1;durP1;ratioP1;P2;durP2;ratioP2
53879;SDS011;39791;53.184;5.486;2024-02-28T00:00:45;68.68;;;61.30;;
53879;SDS011;39791;53.184;5.486;2024-02-28T00:03:11;85.80;;;77.28;;
53879;SDS011;39791;53.184;5.486;2024-02-28T00:05:36;72.78;;;65.28;;
53879;SDS011;39791;53.184;5.486;2024-02-28T00:08:02;72.15;;;64.90;;
53879;SDS011;39791;53.184;5.486;2024-02-28T00:10:27;68.00;;;60.95;;
53879;SDS011;39791;53.184;5.486;2024-02-28T00:12:53;67.00;;;60.20;;
53879;SDS011;39791;53.184;5.486;2024-02-28T00:15:19;84.22;;;75.28;;
53879;SDS011;39791;53.184;5.486;2024-02-28T00:17:44;63.58;;;57.05;;
53879;SDS011;39791;53.184;5.486;2024-02-28T00:20:10;60.95;;;54.85;;
53879;SDS011;39791;53.184;5.486;2024-02-28T00:22:36;71.82;;;64.75;;
53879;SDS011;39791;53.184;5.486;2024-02-28T00:25:03;83.32;;;74.85;;
53879;SDS011;39791;53.184;5.486;2024-02-28T00:27:31;78.05;;;69.95;;
53879;SDS011;39791;53.184;5.486;2024-02-28T00:29:57;80.97;;;72.15;;
53879;SDS011;39791;53.184;5.486;2024-02-28T00:32:23;85.00;;;76.32;;
53879;SDS011;39791;53.184;5.486;2024-02-28T00:34:48;70.57;;;63.47;;
53879;SDS011;39791;53.184;5.486;2024-02-28T00:37:14;77.20;;;69.43;;
53879;SDS011;39791;53.184;5.486;2024-02-28T00:39:39;75.10;;;67.28;;
53879;SDS011;39791;53.184;5.486;2024-02-28T00:42:05;73.07;;;65.13;;
53879;SDS011;39791;53.184;5.486;2024-02-28T00:44:31;64.03;;;57.55;;
53879;SDS011;39791;53.184;5.486;2024-02-28T00:46:56;76.43;;;69.07;;
53879;SDS011;39791;53.184;5.486;2024-02-28T00:49:22;71.13;;;63.75;;
53879;SDS011;39791;53.184;5.486;2024-02-28T00:51:47;70.20;;;62.83;;
53879;SDS011;39791;53.184;5.486;2024-02-28T00:54:13;78.40;;;70.43;;
53879;SDS011;39791;53.184;5.486;2024-02-28T00:56:38;83.88;;;75.13;;
53879;SDS011;39791;53.184;5.486;2024-02-28T00:59:04;79.18;;;71.28;;
53879;SDS011;39791;53.184;5.486;2024-02-28T01:01:31;79.80;;;71.78;;
53879;SDS011;39791;53.184;5.486;2024-02-28T01:03:57;90.40;;;80.80;;
53879;SDS011;39791;53.184;5.486;2024-02-28T01:06:22;75.57;;;67.80;;
53879;SDS011;39791;53.184;5.486;2024-02-28T01:08:48;80.68;;;72.22;;
53879;SDS011;39791;53.184;5.486;2024-02-28T01:11:13;79.97;;;71.82;;
53879;SDS011;39791;53.184;5.486;2024-02-28T01:13:39;80.28;;;72.32;;
53879;SDS011;39791;53.184;5.486;2024-02-28T01:16:05;76.40;;;68.88;;
53879;SDS011;39791;53.184;5.486;2024-02-28T01:18:30;88.78;;;79.43;;
53879;SDS011;39791;53.184;5.486;2024-02-28T01:20:57;70.40;;;62.80;;
53879;SDS011;39791;53.184;5.486;2024-02-28T01:23:22;79.30;;;70.60;;
53879;SDS011;39791;53.184;5.486;2024-02-28T01:25:48;88.47;;;79.43;;
53879;SDS011;39791;53.184;5.486;2024-02-28T01:28:14;81.88;;;73.30;;
53879;SDS011;39791;53.184;5.486;2024-02-28T01:30:39;85.68;;;76.38;;
53879;SDS011;39791;53.184;5.486;2024-02-28T01:33:05;87.45;;;78.65;;
53879;SDS011;39791;53.184;5.486;2024-02-28T01:35:30;86.82;;;78.10;;
53879;SDS011;39791;53.184;5.486;2024-02-28T01:37:56;76.28;;;68.13;;
53879;SDS011;39791;53.184;5.486;2024-02-28T01:40:22;80.65;;;72.25;;
53879;SDS011;39791;53.184;5.486;2024-02-28T01:42:47;94.30;;;84.85;;
53879;SDS011;39791;53.184;5.486;2024-02-28T01:45:13;78.25;;;69.90;;
53879;SDS011;39791;53.184;5.486;2024-02-28T01:47:40;76.40;;;68.70;;
53879;SDS011;39791;53.184;5.486;2024-02-28T01:50:07;92.78;;;83.47;;
53879;SDS011;39791;53.184;5.486;2024-02-28T01:52:33;71.20;;;63.72;;
53879;SDS011;39791;53.184;5.486;2024-02-28T01:55:00;77.07;;;68.75;;
53879;SDS011;39791;53.184;5.486;2024-02-28T01:57:26;76.82;;;68.80;;
53879;SDS011;39791;53.184;5.486;2024-02-28T01:59:52;71.28;;;63.70;;
53879;SDS011;39791;53.184;5.486;2024-02-28T02:02:19;76.70;;;68.70;;
53879;SDS011;39791;53.184;5.486;2024-02-28T02:04:45;71.40;;;63.38;;
53879;SDS011;39791;53.184;5.486;2024-02-28T02:07:10;90.57;;;81.30;;
53879;SDS011;39791;53.184;5.486;2024-02-28T02:09:36;83.05;;;74.72;;
53879;SDS011;39791;53.184;5.486;2024-02-28T02:12:02;74.45;;;66.80;;
53879;SDS011;39791;53.184;5.486;2024-02-28T02:14:27;66.53;;;59.50;;
53879;SDS011;39791;53.184;5.486;2024-02-28T02:16:53;77.07;;;69.00;;
53879;SDS011;39791;53.184;5.486;2024-02-28T02:19:19;70.55;;;63.40;;
53879;SDS011;39791;53.184;5.486;2024-02-28T02:21:49;85.72;;;76.47;;
53879;SDS011;39791;53.184;5.486;2024-02-28T02:24:17;85.18;;;76.28;;
53879;SDS011;39791;53.184;5.486;2024-02-28T02:26:43;90.40;;;80.55;;
53879;SDS011;39791;53.184;5.486;2024-02-28T02:29:11;90.88;;;81.10;;
53879;SDS011;39791;53.184;5.486;2024-02-28T02:31:37;92.05;;;82.25;;
53879;SDS011;39791;53.184;5.486;2024-02-28T02:34:03;76.25;;;68.43;;
53879;SDS011;39791;53.184;5.486;2024-02-28T02:36:29;89.30;;;80.05;;
53879;SDS011;39791;53.184;5.486;2024-02-28T02:38:54;94.85;;;84.95;;
53879;SDS011;39791;53.184;5.486;2024-02-28T02:41:20;73.93;;;66.28;;
53879;SDS011;39791;53.184;5.486;2024-02-28T02:43:45;78.55;;;70.53;;
53879;SDS011;39791;53.184;5.486;2024-02-28T02:46:11;73.50;;;64.90;;
53879;SDS011;39791;53.184;5.486;2024-02-28T02:48:36;91.60;;;81.25;;
53879;SDS011;39791;53.184;5.486;2024-02-28T02:51:02;75.70;;;67.70;;
53879;SDS011;39791;53.184;5.486;2024-02-28T02:53:28;78.75;;;69.13;;
53879;SDS011;39791;53.184;5.486;2024-02-28T02:55:53;81.70;;;73.07;;
53879;SDS011;39791;53.184;5.486;2024-02-28T02:58:19;92.25;;;82.85;;
53879;SDS011;39791;53.184;5.486;2024-02-28T03:00:44;84.32;;;75.30;;
53879;SDS011;39791;53.184;5.486;2024-02-28T03:03:10;74.82;;;66.82;;
53879;SDS011;39791;53.184;5.486;2024-02-28T03:05:36;88.97;;;79.60;;
53879;SDS011;39791;53.184;5.486;2024-02-28T03:08:01;85.57;;;76.30;;
53879;SDS011;39791;53.184;5.486;2024-02-28T03:10:27;95.35;;;81.55;;
53879;SDS011;39791;53.184;5.486;2024-02-28T03:12:53;85.47;;;75.13;;
53879;SDS011;39791;53.184;5.486;2024-02-28T03:15:19;93.28;;;83.18;;
53879;SDS011;39791;53.184;5.486;2024-02-28T03:17:45;95.78;;;83.40;;
53879;SDS011;39791;53.184;5.486;2024-02-28T03:20:11;88.95;;;77.18;;
53879;SDS011;39791;53.184;5.486;2024-02-28T03:22:39;91.10;;;81.82;;
53879;SDS011;39791;53.184;5.486;2024-02-28T03:25:05;86.55;;;77.57;;
53879;SDS011;39791;53.184;5.486;2024-02-28T03:27:31;67.63;;;60.47;;
53879;SDS011;39791;53.184;5.486;2024-02-28T03:29:56;85.97;;;76.53;;
53879;SDS011;39791;53.184;5.486;2024-02-28T03:32:22;73.93;;;66.20;;
53879;SDS011;39791;53.184;5.486;2024-02-28T03:34:47;90.10;;;80.45;;
53879;SDS011;39791;53.184;5.486;2024-02-28T03:37:13;72.60;;;64.72;;
53879;SDS011;39791;53.184;5.486;2024-02-28T03:39:39;70.60;;;63.00;;
53879;SDS011;39791;53.184;5.486;2024-02-28T03:42:05;75.75;;;67.60;;
53879;SDS011;39791;53.184;5.486;2024-02-28T03:44:31;67.22;;;60.15;;
53879;SDS011;39791;53.184;5.486;2024-02-28T03:46:56;80.13;;;71.65;;
53879;SDS011;39791;53.184;5.486;2024-02-28T03:49:22;75.47;;;67.50;;
53879;SDS011;39791;53.184;5.486;2024-02-28T03:51:47;88.00;;;78.47;;
53879;SDS011;39791;53.184;5.486;2024-02-28T03:54:13;78.88;;;69.68;;
53879;SDS011;39791;53.184;5.486;2024-02-28T03:56:38;84.85;;;71.65;;
53879;SDS011;39791;53.184;5.486;2024-02-28T03:59:04;105.85;;;94.53;;
53879;SDS011;39791;53.184;5.486;2024-02-28T04:01:30;99.75;;;86.93;;
53879;SDS011;39791;53.184;5.486;2024-02-28T04:03:55;84.22;;;75.30;;
53879;SDS011;39791;53.184;5.486;2024-02-28T04:06:21;88.90;;;79.63;;
53879;SDS011;39791;53.184;5.486;2024-02-28T04:08:47;84.57;;;75.53;;
53879;SDS011;39791;53.184;5.486;2024-02-28T04:11:12;97.28;;;87.18;;
53879;SDS011;39791;53.184;5.486;2024-02-28T04:13:38;86.65;;;75.68;;
53879;SDS011;39791;53.184;5.486;2024-02-28T04:16:04;78.40;;;68.45;;
53879;SDS011;39791;53.184;5.486;2024-02-28T04:18:31;74.20;;;63.78;;
53879;SDS011;39791;53.184;5.486;2024-02-28T04:20:58;80.80;;;63.20;;
53879;SDS011;39791;53.184;5.486;2024-02-28T04:23:24;89.10;;;78.47;;
53879;SDS011;39791;53.184;5.486;2024-02-28T04:25:49;91.45;;;69.93;;
53879;SDS011;39791;53.184;5.486;2024-02-28T04:28:15;93.10;;;74.28;;
53879;SDS011;39791;53.184;5.486;2024-02-28T04:30:40;93.05;;;74.90;;
53879;SDS011;39791;53.184;5.486;2024-02-28T04:33:06;99.93;;;82.80;;
53879;SDS011;39791;53.184;5.486;2024-02-28T04:35:32;95.45;;;84.95;;
53879;SDS011;39791;53.184;5.486;2024-02-28T04:37:58;85.07;;;75.78;;
53879;SDS011;39791;53.184;5.486;2024-02-28T04:40:23;107.40;;;92.53;;
53879;SDS011;39791;53.184;5.486;2024-02-28T04:42:49;80.05;;;64.80;;
53879;SDS011;39791;53.184;5.486;2024-02-28T04:45:14;105.95;;;86.72;;
53879;SDS011;39791;53.184;5.486;2024-02-28T04:47:40;84.15;;;72.10;;
53879;SDS011;39791;53.184;5.486;2024-02-28T04:50:05;88.88;;;75.82;;
53879;SDS011;39791;53.184;5.486;2024-02-28T04:52:32;101.15;;;81.75;;
53879;SDS011;39791;53.184;5.486;2024-02-28T04:54:58;82.65;;;70.53;;
53879;SDS011;39791;53.184;5.486;2024-02-28T04:57:23;104.82;;;75.95;;
53879;SDS011;39791;53.184;5.486;2024-02-28T04:59:49;124.28;;;97.70;;
53879;SDS011;39791;53.184;5.486;2024-02-28T05:02:14;117.20;;;98.82;;
53879;SDS011;39791;53.184;5.486;2024-02-28T05:04:41;121.20;;;106.78;;
53879;SDS011;39791;53.184;5.486;2024-02-28T05:07:07;95.40;;;79.65;;
53879;SDS011;39791;53.184;5.486;2024-02-28T05:09:33;95.80;;;80.45;;
53879;SDS011;39791;53.184;5.486;2024-02-28T05:11:58;97.40;;;81.75;;
53879;SDS011;39791;53.184;5.486;2024-02-28T05:14:24;99.32;;;77.95;;
53879;SDS011;39791;53.184;5.486;2024-02-28T05:16:50;94.75;;;78.03;;
53879;SDS011;39791;53.184;5.486;2024-02-28T05:19:16;111.47;;;99.35;;
53879;SDS011;39791;53.184;5.486;2024-02-28T05:21:44;86.32;;;69.00;;
53879;SDS011;39791;53.184;5.486;2024-02-28T05:24:11;104.10;;;92.70;;
53879;SDS011;39791;53.184;5.486;2024-02-28T05:26:37;88.20;;;72.05;;
53879;SDS011;39791;53.184;5.486;2024-02-28T05:29:03;92.18;;;79.60;;
53879;SDS011;39791;53.184;5.486;2024-02-28T05:31:30;105.75;;;94.22;;
53879;SDS011;39791;53.184;5.486;2024-02-28T05:33:59;102.60;;;88.15;;
53879;SDS011;39791;53.184;5.486;2024-02-28T05:36:26;112.40;;;93.35;;
53879;SDS011;39791;53.184;5.486;2024-02-28T05:38:53;106.53;;;89.82;;
53879;SDS011;39791;53.184;5.486;2024-02-28T05:41:20;109.43;;;94.00;;
53879;SDS011;39791;53.184;5.486;2024-02-28T05:43:47;113.82;;;96.80;;
53879;SDS011;39791;53.184;5.486;2024-02-28T05:46:13;110.25;;;95.50;;
53879;SDS011;39791;53.184;5.486;2024-02-28T05:48:43;109.80;;;94.68;;
53879;SDS011;39791;53.184;5.486;2024-02-28T05:51:09;121.85;;;93.57;;
53879;SDS011;39791;53.184;5.486;2024-02-28T05:53:36;88.80;;;73.07;;
53879;SDS011;39791;53.184;5.486;2024-02-28T05:56:05;102.45;;;83.28;;
53879;SDS011;39791;53.184;5.486;2024-02-28T05:58:38;111.57;;;96.10;;
53879;SDS011;39791;53.184;5.486;2024-02-28T06:01:08;111.07;;;98.90;;
53879;SDS011;39791;53.184;5.486;2024-02-28T06:03:34;93.43;;;76.47;;
53879;SDS011;39791;53.184;5.486;2024-02-28T06:06:00;102.72;;;87.97;;
53879;SDS011;39791;53.184;5.486;2024-02-28T06:08:26;102.18;;;86.55;;
53879;SDS011;39791;53.184;5.486;2024-02-28T06:10:52;96.85;;;80.75;;
53879;SDS011;39791;53.184;5.486;2024-02-28T06:13:18;103.13;;;85.25;;
53879;SDS011;39791;53.184;5.486;2024-02-28T06:15:44;103.63;;;92.15;;
53879;SDS011;39791;53.184;5.486;2024-02-28T06:18:09;107.85;;;91.00;;
53879;SDS011;39791;53.184;5.486;2024-02-28T06:20:35;100.80;;;75.18;;
53879;SDS011;39791;53.184;5.486;2024-02-28T06:23:02;102.68;;;88.90;;
53879;SDS011;39791;53.184;5.486;2024-02-28T06:25:27;112.47;;;84.32;;
53879;SDS011;39791;53.184;5.486;2024-02-28T06:27:53;111.00;;;89.68;;
53879;SDS011;39791;53.184;5.486;2024-02-28T06:30:18;91.70;;;80.45;;
53879;SDS011;39791;53.184;5.486;2024-02-28T06:32:44;115.00;;;95.43;;
53879;SDS011;39791;53.184;5.486;2024-02-28T06:35:10;96.88;;;71.18;;
53879;SDS011;39791;53.184;5.486;2024-02-28T06:37:35;106.28;;;94.43;;
53879;SDS011;39791;53.184;5.486;2024-02-28T06:40:02;114.00;;;95.25;;
53879;SDS011;39791;53.184;5.486;2024-02-28T06:42:33;112.00;;;92.28;;
53879;SDS011;39791;53.184;5.486;2024-02-28T06:45:01;119.03;;;95.35;;
53879;SDS011;39791;53.184;5.486;2024-02-28T06:47:27;110.75;;;82.40;;
53879;SDS011;39791;53.184;5.486;2024-02-28T06:49:53;119.20;;;100.05;;
53879;SDS011;39791;53.184;5.486;2024-02-28T06:52:18;123.40;;;98.95;;
53879;SDS011;39791;53.184;5.486;2024-02-28T06:54:44;95.38;;;78.68;;
53879;SDS011;39791;53.184;5.486;2024-02-28T06:57:09;117.90;;;99.35;;
53879;SDS011;39791;53.184;5.486;2024-02-28T06:59:36;117.20;;;94.60;;
53879;SDS011;39791;53.184;5.486;2024-02-28T07:02:02;95.55;;;77.88;;
53879;SDS011;39791;53.184;5.486;2024-02-28T07:04:27;129.18;;;107.05;;
53879;SDS011;39791;53.184;5.486;2024-02-28T07:06:53;122.50;;;102.72;;
53879;SDS011;39791;53.184;5.486;2024-02-28T07:09:18;123.18;;;104.28;;
53879;SDS011;39791;53.184;5.486;2024-02-28T07:11:44;103.43;;;80.28;;
53879;SDS011;39791;53.184;5.486;2024-02-28T07:14:10;115.93;;;88.47;;
53879;SDS011;39791;53.184;5.486;2024-02-28T07:16:35;125.95;;;106.35;;
53879;SDS011;39791;53.184;5.486;2024-02-28T07:19:01;121.95;;;81.30;;
53879;SDS011;39791;53.184;5.486;2024-02-28T07:21:27;139.23;;;113.53;;
53879;SDS011;39791;53.184;5.486;2024-02-28T07:23:52;112.25;;;89.95;;
53879;SDS011;39791;53.184;5.486;2024-02-28T07:26:19;116.15;;;102.15;;
53879;SDS011;39791;53.184;5.486;2024-02-28T07:28:44;110.10;;;90.57;;
53879;SDS011;39791;53.184;5.486;2024-02-28T07:31:18;122.88;;;105.63;;
53879;SDS011;39791;53.184;5.486;2024-02-28T07:33:44;124.28;;;107.57;;
53879;SDS011;39791;53.184;5.486;2024-02-28T07:36:10;123.45;;;103.82;;
53879;SDS011;39791;53.184;5.486;2024-02-28T07:38:36;127.15;;;113.40;;
53879;SDS011;39791;53.184;5.486;2024-02-28T07:41:02;117.72;;;89.22;;
53879;SDS011;39791;53.184;5.486;2024-02-28T07:43:28;120.13;;;86.45;;
53879;SDS011;39791;53.184;5.486;2024-02-28T07:45:57;119.05;;;90.45;;
53879;SDS011;39791;53.184;5.486;2024-02-28T07:48:23;124.25;;;111.03;;
53879;SDS011;39791;53.184;5.486;2024-02-28T07:50:49;121.85;;;104.22;;
53879;SDS011;39791;53.184;5.486;2024-02-28T07:53:14;123.93;;;93.35;;
53879;SDS011;39791;53.184;5.486;2024-02-28T07:55:40;124.90;;;106.85;;
53879;SDS011;39791;53.184;5.486;2024-02-28T07:58:06;118.28;;;98.20;;
53879;SDS011;39791;53.184;5.486;2024-02-28T08:00:32;114.55;;;100.15;;
53879;SDS011;39791;53.184;5.486;2024-02-28T08:03:00;118.13;;;102.32;;
53879;SDS011;39791;53.184;5.486;2024-02-28T08:05:26;125.78;;;103.65;;
53879;SDS011;39791;53.184;5.486;2024-02-28T08:07:52;122.03;;;103.25;;
53879;SDS011;39791;53.184;5.486;2024-02-28T08:10:18;110.72;;;74.45;;
53879;SDS011;39791;53.184;5.486;2024-02-28T08:12:43;119.18;;;96.53;;
53879;SDS011;39791;53.184;5.486;2024-02-28T08:15:09;119.65;;;106.50;;
53879;SDS011;39791;53.184;5.486;2024-02-28T08:17:35;125.07;;;110.30;;
53879;SDS011;39791;53.184;5.486;2024-02-28T08:20:02;122.70;;;109.43;;
53879;SDS011;39791;53.184;5.486;2024-02-28T08:22:30;120.72;;;107.50;;
53879;SDS011;39791;53.184;5.486;2024-02-28T08:24:56;118.90;;;106.00;;
53879;SDS011;39791;53.184;5.486;2024-02-28T08:27:21;124.32;;;110.13;;
53879;SDS011;39791;53.184;5.486;2024-02-28T08:29:48;116.72;;;98.93;;
53879;SDS011;39791;53.184;5.486;2024-02-28T08:32:14;101.10;;;87.93;;
53879;SDS011;39791;53.184;5.486;2024-02-28T08:34:43;105.25;;;87.55;;
53879;SDS011;39791;53.184;5.486;2024-02-28T08:37:10;115.53;;;101.28;;
53879;SDS011;39791;53.184;5.486;2024-02-28T08:39:35;108.88;;;95.82;;
53879;SDS011;39791;53.184;5.486;2024-02-28T08:42:01;115.45;;;92.60;;
53879;SDS011;39791;53.184;5.486;2024-02-28T08:44:27;120.05;;;104.00;;
53879;SDS011;39791;53.184;5.486;2024-02-28T08:46:52;117.95;;;101.05;;
53879;SDS011;39791;53.184;5.486;2024-02-28T08:49:18;114.38;;;97.97;;
53879;SDS011;39791;53.184;5.486;2024-02-28T08:51:43;120.13;;;105.50;;
53879;SDS011;39791;53.184;5.486;2024-02-28T08:54:09;118.40;;;105.50;;
53879;SDS011;39791;53.184;5.486;2024-02-28T08:56:35;109.85;;;89.75;;
53879;SDS011;39791;53.184;5.486;2024-02-28T08:59:00;119.45;;;106.40;;
53879;SDS011;39791;53.184;5.486;2024-02-28T09:01:26;114.05;;;99.05;;
53879;SDS011;39791;53.184;5.486;2024-02-28T09:03:51;116.57;;;97.95;;
53879;SDS011;39791;53.184;5.486;2024-02-28T09:06:17;120.28;;;107.15;;
53879;SDS011;39791;53.184;5.486;2024-02-28T09:08:42;114.57;;;100.53;;
53879;SDS011;39791;53.184;5.486;2024-02-28T09:11:08;113.00;;;95.68;;
53879;SDS011;39791;53.184;5.486;2024-02-28T09:13:34;117.15;;;104.40;;
53879;SDS011;39791;53.184;5.486;2024-02-28T09:16:02;128.73;;;110.53;;
53879;SDS011;39791;53.184;5.486;2024-02-28T09:18:28;124.05;;;110.60;;
53879;SDS011;39791;53.184;5.486;2024-02-28T09:20:54;117.65;;;101.45;;
53879;SDS011;39791;53.184;5.486;2024-02-28T09:23:20;126.90;;;108.28;;
53879;SDS011;39791;53.184;5.486;2024-02-28T09:25:46;119.30;;;101.85;;
53879;SDS011;39791;53.184;5.486;2024-02-28T09:28:12;123.13;;;104.82;;
53879;SDS011;39791;53.184;5.486;2024-02-28T09:30:38;125.80;;;108.72;;
53879;SDS011;39791;53.184;5.486;2024-02-28T09:33:04;119.68;;;105.75;;
53879;SDS011;39791;53.184;5.486;2024-02-28T09:35:30;123.95;;;108.40;;
53879;SDS011;39791;53.184;5.486;2024-02-28T09:37:55;121.97;;;105.53;;
53879;SDS011;39791;53.184;5.486;2024-02-28T09:40:21;126.57;;;106.18;;
53879;SDS011;39791;53.184;5.486;2024-02-28T09:42:52;127.95;;;112.47;;
53879;SDS011;39791;53.184;5.486;2024-02-28T09:45:22;113.28;;;99.72;;
53879;SDS011;39791;53.184;5.486;2024-02-28T09:47:49;121.38;;;107.72;;
53879;SDS011;39791;53.184;5.486;2024-02-28T09:50:15;118.05;;;104.70;;
53879;SDS011;39791;53.184;5.486;2024-02-28T09:52:44;122.45;;;109.15;;
53879;SDS011;39791;53.184;5.486;2024-02-28T09:55:10;126.97;;;113.60;;
53879;SDS011;39791;53.184;5.486;2024-02-28T09:57:35;121.75;;;108.45;;
53879;SDS011;39791;53.184;5.486;2024-02-28T10:00:02;126.43;;;112.53;;
53879;SDS011;39791;53.184;5.486;2024-02-28T10:02:29;112.43;;;98.63;;
53879;SDS011;39791;53.184;5.486;2024-02-28T10:04:56;121.13;;;106.88;;
53879;SDS011;39791;53.184;5.486;2024-02-28T10:07:25;124.28;;;102.63;;
53879;SDS011;39791;53.184;5.486;2024-02-28T10:09:52;117.05;;;103.72;;
53879;SDS011;39791;53.184;5.486;2024-02-28T10:12:17;116.15;;;102.20;;
53879;SDS011;39791;53.184;5.486;2024-02-28T10:14:44;119.18;;;103.60;;
53879;SDS011;39791;53.184;5.486;2024-02-28T10:17:09;119.00;;;103.18;;
53879;SDS011;39791;53.184;5.486;2024-02-28T10:19:35;123.22;;;97.88;;
53879;SDS011;39791;53.184;5.486;2024-02-28T10:22:01;121.00;;;100.20;;
53879;SDS011;39791;53.184;5.486;2024-02-28T10:24:26;118.25;;;102.90;;
53879;SDS011;39791;53.184;5.486;2024-02-28T10:26:52;111.43;;;92.22;;
53879;SDS011;39791;53.184;5.486;2024-02-28T10:29:24;114.55;;;99.10;;
53879;SDS011;39791;53.184;5.486;2024-02-28T10:31:50;123.38;;;105.78;;
53879;SDS011;39791;53.184;5.486;2024-02-28T10:34:17;113.07;;;99.70;;
53879;SDS011;39791;53.184;5.486;2024-02-28T10:36:43;113.35;;;99.32;;
53879;SDS011;39791;53.184;5.486;2024-02-28T10:39:11;123.43;;;103.55;;
53879;SDS011;39791;53.184;5.486;2024-02-28T10:41:39;113.00;;;94.35;;
53879;SDS011;39791;53.184;5.486;2024-02-28T10:44:06;113.57;;;95.97;;
53879;SDS011;39791;53.184;5.486;2024-02-28T10:46:32;108.63;;;89.03;;
53879;SDS011;39791;53.184;5.486;2024-02-28T10:48:57;105.78;;;89.90;;
53879;SDS011;39791;53.184;5.486;2024-02-28T10:51:24;112.03;;;92.25;;
53879;SDS011;39791;53.184;5.486;2024-02-28T10:53:53;113.38;;;89.43;;
53879;SDS011;39791;53.184;5.486;2024-02-28T10:56:29;112.18;;;95.15;;
53879;SDS011;39791;53.184;5.486;2024-02-28T10:58:57;107.82;;;91.68;;
53879;SDS011;39791;53.184;5.486;2024-02-28T11:01:25;108.63;;;94.90;;
53879;SDS011;39791;53.184;5.486;2024-02-28T11:03:51;110.07;;;92.38;;
53879;SDS011;39791;53.184;5.486;2024-02-28T11:06:21;112.18;;;90.60;;
53879;SDS011;39791;53.184;5.486;2024-02-28T11:08:48;110.30;;;93.60;;
53879;SDS011;39791;53.184;5.486;2024-02-28T11:11:18;104.72;;;89.97;;
53879;SDS011;39791;53.184;5.486;2024-02-28T11:13:52;99.70;;;83.78;;
53879;SDS011;39791;53.184;5.486;2024-02-28T11:16:25;95.15;;;81.03;;
53879;SDS011;39791;53.184;5.486;2024-02-28T11:18:55;103.05;;;86.32;;
53879;SDS011;39791;53.184;5.486;2024-02-28T11:21:27;102.97;;;87.97;;
53879;SDS011;39791;53.184;5.486;2024-02-28T11:23:57;97.63;;;82.57;;
53879;SDS011;39791;53.184;5.486;2024-02-28T11:26:23;116.45;;;95.15;;
53879;SDS011;39791;53.184;5.486;2024-02-28T11:28:49;100.15;;;87.00;;
53879;SDS011;39791;53.184;5.486;2024-02-28T11:31:15;116.00;;;95.68;;
53879;SDS011;39791;53.184;5.486;2024-02-28T11:33:41;113.70;;;97.63;;
53879;SDS011;39791;53.184;5.486;2024-02-28T11:36:07;113.35;;;91.72;;
53879;SDS011;39791;53.184;5.486;2024-02-28T11:38:36;114.75;;;101.70;;
53879;SDS011;39791;53.184;5.486;2024-02-28T11:41:04;118.53;;;99.57;;
53879;SDS011;39791;53.184;5.486;2024-02-28T11:43:33;116.32;;;98.13;;
53879;SDS011;39791;53.184;5.486;2024-02-28T11:46:09;125.18;;;103.30;;
53879;SDS011;39791;53.184;5.486;2024-02-28T11:48:35;110.10;;;94.95;;
53879;SDS011;39791;53.184;5.486;2024-02-28T11:51:01;113.65;;;96.90;;
53879;SDS011;39791;53.184;5.486;2024-02-28T11:53:26;119.00;;;103.78;;
53879;SDS011;39791;53.184;5.486;2024-02-28T11:55:52;120.78;;;100.68;;
53879;SDS011;39791;53.184;5.486;2024-02-28T11:58:18;121.53;;;108.13;;
53879;SDS011;39791;53.184;5.486;2024-02-28T12:00:49;126.60;;;112.30;;
53879;SDS011;39791;53.184;5.486;2024-02-28T12:03:25;113.60;;;96.93;;
53879;SDS011;39791;53.184;5.486;2024-02-28T12:05:51;120.40;;;104.78;;
53879;SDS011;39791;53.184;5.486;2024-02-28T12:08:18;111.38;;;97.15;;
53879;SDS011;39791;53.184;5.486;2024-02-28T12:10:45;110.68;;;97.00;;
53879;SDS011;39791;53.184;5.486;2024-02-28T12:13:11;107.05;;;95.50;;
53879;SDS011;39791;53.184;5.486;2024-02-28T12:15:40;118.90;;;98.93;;
53879;SDS011;39791;53.184;5.486;2024-02-28T12:18:09;116.18;;;102.90;;
53879;SDS011;39791;53.184;5.486;2024-02-28T12:20:36;113.90;;;99.43;;
53879;SDS011;39791;53.184;5.486;2024-02-28T12:23:04;116.97;;;97.70;;
53879;SDS011;39791;53.184;5.486;2024-02-28T12:25:30;115.78;;;97.78;;
53879;SDS011;39791;53.184;5.486;2024-02-28T12:27:56;120.82;;;103.32;;
53879;SDS011;39791;53.184;5.486;2024-02-28T12:30:22;117.25;;;99.88;;
53879;SDS011;39791;53.184;5.486;2024-02-28T12:32:49;115.60;;;99.93;;
53879;SDS011;39791;53.184;5.486;2024-02-28T12:35:14;113.05;;;99.18;;
53879;SDS011;39791;53.184;5.486;2024-02-28T12:37:40;113.22;;;93.18;;
53879;SDS011;39791;53.184;5.486;2024-02-28T12:40:05;104.88;;;89.68;;
53879;SDS011;39791;53.184;5.486;2024-02-28T12:42:31;113.68;;;95.10;;
53879;SDS011;39791;53.184;5.486;2024-02-28T12:44:57;98.88;;;85.07;;
53879;SDS011;39791;53.184;5.486;2024-02-28T12:47:23;96.60;;;85.80;;
53879;SDS011;39791;53.184;5.486;2024-02-28T12:49:49;104.05;;;90.32;;
53879;SDS011;39791;53.184;5.486;2024-02-28T12:52:14;97.07;;;85.95;;
53879;SDS011;39791;53.184;5.486;2024-02-28T12:54:40;103.40;;;90.65;;
53879;SDS011;39791;53.184;5.486;2024-02-28T12:57:06;105.22;;;89.32;;
53879;SDS011;39791;53.184;5.486;2024-02-28T12:59:33;112.45;;;93.65;;
53879;SDS011;39791;53.184;5.486;2024-02-28T13:01:59;105.85;;;90.50;;
53879;SDS011;39791;53.184;5.486;2024-02-28T13:04:25;111.65;;;96.38;;
53879;SDS011;39791;53.184;5.486;2024-02-28T13:06:55;107.63;;;86.65;;
53879;SDS011;39791;53.184;5.486;2024-02-28T13:09:20;102.90;;;84.93;;
53879;SDS011;39791;53.184;5.486;2024-02-28T13:11:47;111.07;;;98.68;;
53879;SDS011;39791;53.184;5.486;2024-02-28T13:14:13;114.20;;;94.03;;
53879;SDS011;39791;53.184;5.486;2024-02-28T13:16:38;114.95;;;95.00;;
53879;SDS011;39791;53.184;5.486;2024-02-28T13:19:04;110.45;;;95.00;;
53879;SDS011;39791;53.184;5.486;2024-02-28T13:21:30;116.63;;;99.15;;
53879;SDS011;39791;53.184;5.486;2024-02-28T13:23:57;111.47;;;94.32;;
53879;SDS011;39791;53.184;5.486;2024-02-28T13:26:23;111.15;;;94.00;;
53879;SDS011;39791;53.184;5.486;2024-02-28T13:28:49;114.30;;;98.50;;
53879;SDS011;39791;53.184;5.486;2024-02-28T13:31:15;108.85;;;95.35;;
53879;SDS011;39791;53.184;5.486;2024-02-28T13:33:41;106.75;;;89.38;;
53879;SDS011;39791;53.184;5.486;2024-02-28T13:36:07;108.93;;;89.50;;
53879;SDS011;39791;53.184;5.486;2024-02-28T13:38:32;110.03;;;97.93;;
53879;SDS011;39791;53.184;5.486;2024-02-28T13:40:58;110.60;;;93.03;;
53879;SDS011;39791;53.184;5.486;2024-02-28T13:43:24;116.30;;;97.00;;
53879;SDS011;39791;53.184;5.486;2024-02-28T13:45:50;100.05;;;86.07;;
53879;SDS011;39791;53.184;5.486;2024-02-28T13:48:17;107.75;;;93.00;;
53879;SDS011;39791;53.184;5.486;2024-02-28T13:50:47;96.70;;;81.03;;
53879;SDS011;39791;53.184;5.486;2024-02-28T13:53:16;104.07;;;89.82;;
53879;SDS011;39791;53.184;5.486;2024-02-28T13:55:42;108.97;;;92.13;;
53879;SDS011;39791;53.184;5.486;2024-02-28T13:58:10;104.43;;;86.00;;
53879;SDS011;39791;53.184;5.486;2024-02-28T14:00:36;104.00;;;86.70;;
53879;SDS011;39791;53.184;5.486;2024-02-28T14:03:03;102.70;;;85.95;;
53879;SDS011;39791;53.184;5.486;2024-02-28T14:05:29;97.38;;;83.85;;